Time;durP1;ratioP1;P1;durP2;ratioP2;P2;SDS_P1;SDS_P2;PMS_P1;PMS_P2;Temp;Humidity;BMP_temperature;BMP_pressure;BME280_temperature;BME280_humidity;BME280_pressure;Samples;Min_cycle;Max_cycle;Signal;HPM_P1;HPM_P2
2020/12/24 00:01:04;;;;;;;1.45;0.80;;;11.00;90.00;;;;;;5072375;28;20495;-73
2020/12/24 00:03:30;;;;;;;0.98;0.75;;;11.00;89.30;;;;;;5072505;28;20032;-72
2020/12/24 00:05:56;;;;;;;1.80;1.15;;;11.00;88.90;;;;;;5072355;28;20133;-73
2020/12/24 00:08:22;;;;;;;0.98;0.65;;;11.00;89.60;;;;;;5070916;28;20033;-74
2020/12/24 00:10:49;;;;;;;0.80;0.60;;;11.00;89.20;;;;;;5072586;28;20444;-73
2020/12/24 00:13:15;;;;;;;0.43;0.35;;;11.00;88.70;;;;;;5072290;28;20025;-73
2020/12/24 00:15:41;;;;;;;2.20;1.27;;;11.10;88.40;;;;;;5072536;28;20055;-73
2020/12/24 00:18:06;;;;;;;1.77;1.33;;;11.10;88.40;;;;;;5072203;28;20052;-73
2020/12/24 00:20:32;;;;;;;1.27;0.93;;;11.00;88.60;;;;;;5072220;28;20029;-73
2020/12/24 00:22:58;;;;;;;2.03;0.50;;;11.00;87.90;;;;;;5072061;28;20138;-73
2020/12/24 00:25:23;;;;;;;2.10;0.80;;;11.10;87.70;;;;;;5072122;28;20029;-73
2020/12/24 00:27:49;;;;;;;2.55;1.50;;;11.00;88.10;;;;;;5071968;28;20029;-73
2020/12/24 00:30:15;;;;;;;1.92;1.40;;;11.00;87.80;;;;;;5072290;28;20029;-73
2020/12/24 00:32:40;;;;;;;3.08;1.75;;;11.00;88.20;;;;;;5072313;28;20450;-73
2020/12/24 00:35:06;;;;;;;0.90;0.80;;;10.90;87.70;;;;;;5071942;28;20059;-73
2020/12/24 00:37:32;;;;;;;1.77;1.13;;;11.00;87.30;;;;;;5072005;28;20102;-73
2020/12/24 00:39:57;;;;;;;3.13;1.20;;;10.90;87.60;;;;;;5072045;28;20020;-73
2020/12/24 00:42:23;;;;;;;2.55;1.40;;;10.90;87.50;;;;;;5072025;28;20025;-73
2020/12/24 00:44:48;;;;;;;1.50;1.10;;;10.80;87.70;;;;;;5071903;28;20080;-73
2020/12/24 00:47:14;;;;;;;2.58;1.63;;;10.80;87.50;;;;;;5071870;28;20143;-73
2020/12/24 00:49:40;;;;;;;2.47;1.40;;;10.90;87.50;;;;;;5072148;28;20017;-73
2020/12/24 00:52:05;;;;;;;1.75;0.80;;;11.00;86.90;;;;;;5072262;28;20036;-74
2020/12/24 00:54:31;;;;;;;0.60;0.50;;;10.90;86.80;;;;;;5073987;28;20024;-73
2020/12/24 00:56:58;;;;;;;1.63;1.05;;;10.80;87.30;;;;;;5075853;28;20083;-73
2020/12/24 00:59:23;;;;;;;0.65;0.50;;;10.80;87.80;;;;;;5075769;28;20056;-74
2020/12/24 01:01:49;;;;;;;1.15;0.57;;;10.70;87.50;;;;;;5095756;28;20051;-73
2020/12/24 01:04:15;;;;;;;2.08;0.73;;;10.70;87.40;;;;;;5095747;28;20032;-73
2020/12/24 01:06:40;;;;;;;4.05;1.25;;;10.60;87.70;;;;;;5077367;28;20115;-73
2020/12/24 01:09:06;;;;;;;2.83;1.52;;;10.60;87.90;;;;;;5095874;28;20113;-73
2020/12/24 01:11:32;;;;;;;2.78;1.77;;;10.70;87.40;;;;;;5095524;28;20028;-73
2020/12/24 01:13:58;;;;;;;1.65;1.30;;;10.70;87.10;;;;;;5095386;28;20620;-73
2020/12/24 01:16:24;;;;;;;3.25;1.08;;;10.70;87.00;;;;;;5095511;28;20046;-73
2020/12/24 01:18:50;;;;;;;1.48;0.93;;;10.70;87.10;;;;;;5077126;28;20497;-73
2020/12/24 01:21:15;;;;;;;1.05;0.38;;;10.70;87.10;;;;;;5095422;28;20016;-73
2020/12/24 01:23:42;;;;;;;1.73;1.20;;;10.60;87.30;;;;;;5095308;28;20020;-73
2020/12/24 01:26:08;;;;;;;1.40;1.00;;;10.60;87.40;;;;;;5095514;28;20024;-73
2020/12/24 01:28:34;;;;;;;1.77;1.25;;;10.70;86.60;;;;;;5094991;28;20035;-73
2020/12/24 01:31:00;;;;;;;0.57;0.55;;;10.70;86.80;;;;;;5095361;28;20016;-73
2020/12/24 01:33:26;;;;;;;2.20;1.35;;;10.60;86.80;;;;;;5095077;28;20024;-73
2020/12/24 01:35:53;;;;;;;1.67;1.20;;;10.50;87.00;;;;;;5077211;28;20103;-73
2020/12/24 01:38:18;;;;;;;3.90;1.88;;;10.50;86.80;;;;;;5095083;28;20034;-73
2020/12/24 01:40:45;;;;;;;1.70;0.70;;;10.60;87.40;;;;;;5060234;28;20031;-73
2020/12/24 01:43:10;;;;;;;0.77;0.63;;;10.60;86.80;;;;;;5094887;28;20047;-73
2020/12/24 01:45:36;;;;;;;2.42;0.95;;;10.70;86.10;;;;;;5094903;28;20062;-73
2020/12/24 01:48:02;;;;;;;0.55;0.50;;;10.60;86.30;;;;;;5059707;28;20495;-73
2020/12/24 01:50:28;;;;;;;1.13;0.70;;;10.60;86.30;;;;;;5042663;23;20053;-73
2020/12/24 01:52:56;;;;;;;2.47;0.52;;;10.60;86.60;;;;;;5034934;28;20531;-73
2020/12/24 01:55:23;;;;;;;1.20;0.80;;;10.70;86.20;;;;;;5022359;28;20507;-73
2020/12/24 01:57:52;;;;;;;1.23;0.68;;;10.70;85.80;;;;;;5013531;28;20044;-73
2020/12/24 02:00:18;;;;;;;1.35;0.57;;;10.70;86.10;;;;;;5014665;28;20476;-73
2020/12/24 02:02:44;;;;;;;1.52;0.40;;;10.70;85.70;;;;;;5014674;28;20030;-73
2020/12/24 02:05:10;;;;;;;0.57;0.52;;;10.70;85.80;;;;;;5029817;28;20067;-73
2020/12/24 02:07:35;;;;;;;1.08;0.95;;;10.60;85.80;;;;;;5013533;28;20042;-73
2020/12/24 02:10:02;;;;;;;3.53;1.25;;;10.60;85.70;;;;;;5014533;28;20029;-73
2020/12/24 02:12:28;;;;;;;1.92;0.70;;;10.60;86.40;;;;;;5014542;28;20037;-73
2020/12/24 02:14:53;;;;;;;2.15;1.25;;;10.60;85.90;;;;;;5014709;28;20030;-73
2020/12/24 02:17:19;;;;;;;1.75;0.68;;;10.60;86.00;;;;;;5014412;28;20495;-73
2020/12/24 02:19:45;;;;;;;3.25;1.40;;;10.60;86.00;;;;;;5029633;28;20042;-73
2020/12/24 02:22:12;;;;;;;1.85;0.60;;;10.60;86.70;;;;;;5029506;28;20022;-73
2020/12/24 02:24:42;;;;;;;2.22;1.45;;;10.50;86.20;;;;;;5014270;28;20026;-73
2020/12/24 02:27:08;;;;;;;2.78;0.70;;;10.50;86.60;;;;;;5014099;28;20026;-73
2020/12/24 02:29:33;;;;;;;3.33;1.10;;;10.50;85.90;;;;;;5012878;28;20057;-73
2020/12/24 02:31:59;;;;;;;2.80;1.23;;;10.50;86.30;;;;;;5014185;28;20492;-73
2020/12/24 02:34:25;;;;;;;1.60;0.60;;;10.50;86.30;;;;;;5013854;28;20117;-73
2020/12/24 02:36:50;;;;;;;1.25;0.65;;;10.60;85.70;;;;;;5014014;28;20049;-73
2020/12/24 02:39:16;;;;;;;2.42;1.23;;;10.50;85.30;;;;;;5014244;28;20022;-73
2020/12/24 02:41:42;;;;;;;2.95;1.00;;;10.50;85.20;;;;;;5014128;28;20452;-73
2020/12/24 02:44:07;;;;;;;1.85;0.70;;;10.60;85.60;;;;;;5012537;28;20030;-73
2020/12/24 02:46:33;;;;;;;2.97;0.77;;;10.60;85.00;;;;;;5012608;28;20396;-74
2020/12/24 02:48:59;;;;;;;1.60;0.70;;;10.60;85.20;;;;;;5013828;28;20528;-73
2020/12/24 02:51:25;;;;;;;3.00;1.33;;;10.60;85.00;;;;;;5013805;28;20072;-73
2020/12/24 02:53:50;;;;;;;2.58;1.55;;;10.50;85.60;;;;;;5013968;28;20033;-73
2020/12/24 02:56:16;;;;;;;1.60;1.17;;;10.50;85.80;;;;;;5013687;28;20061;-73
2020/12/24 02:58:42;;;;;;;1.58;1.13;;;10.60;85.40;;;;;;5013551;28;20022;-73
2020/12/24 03:01:07;;;;;;;3.88;0.70;;;10.60;85.60;;;;;;5012685;28;20038;-73
2020/12/24 03:03:33;;;;;;;4.00;1.48;;;10.60;84.90;;;;;;5013458;28;20030;-73
2020/12/24 03:05:58;;;;;;;1.63;0.75;;;10.50;84.80;;;;;;5013495;28;20037;-73
2020/12/24 03:08:24;;;;;;;1.55;1.30;;;10.60;84.20;;;;;;5013666;28;20091;-73
2020/12/24 03:10:50;;;;;;;2.58;1.48;;;10.60;85.00;;;;;;5013443;28;20022;-73
2020/12/24 03:13:15;;;;;;;2.63;0.80;;;10.60;84.80;;;;;;5013462;28;20025;-73
2020/12/24 03:15:41;;;;;;;4.47;1.85;;;10.60;84.50;;;;;;5013375;28;20033;-73
2020/12/24 03:18:07;;;;;;;2.70;0.93;;;10.60;84.50;;;;;;5012968;28;20028;-73
2020/12/24 03:20:32;;;;;;;3.13;1.63;;;10.60;84.80;;;;;;5013311;28;20428;-73
2020/12/24 03:22:58;;;;;;;2.67;1.42;;;10.60;85.20;;;;;;5013556;28;20412;-73
2020/12/24 03:25:24;;;;;;;3.13;1.88;;;10.50;84.80;;;;;;5013143;28;20018;-73
2020/12/24 03:27:49;;;;;;;2.80;1.38;;;10.50;85.10;;;;;;5013133;28;20038;-73
2020/12/24 03:30:15;;;;;;;2.10;0.93;;;10.60;84.70;;;;;;5013109;28;20049;-73
2020/12/24 03:32:41;;;;;;;2.13;1.25;;;10.50;84.60;;;;;;5013371;28;20061;-73
2020/12/24 03:35:07;;;;;;;2.15;1.23;;;10.50;84.70;;;;;;5013164;28;20097;-73
2020/12/24 03:37:33;;;;;;;3.13;1.23;;;10.50;83.80;;;;;;5013500;28;20022;-73
2020/12/24 03:39:59;;;;;;;4.00;1.15;;;10.50;84.20;;;;;;5012186;28;20033;-73
2020/12/24 03:42:25;;;;;;;1.58;0.90;;;10.60;83.70;;;;;;5013174;28;20030;-73
2020/12/24 03:44:50;;;;;;;3.60;1.00;;;10.70;83.90;;;;;;5013083;28;20022;-73
2020/12/24 03:47:16;;;;;;;2.80;1.05;;;10.70;83.40;;;;;;5012879;28;20037;-73
2020/12/24 03:49:42;;;;;;;2.78;0.80;;;10.70;83.20;;;;;;5011644;28;20057;-73
2020/12/24 03:52:07;;;;;;;3.40;1.08;;;10.70;83.60;;;;;;5012279;28;20385;-73
2020/12/24 03:54:33;;;;;;;1.60;0.77;;;10.70;83.40;;;;;;5011845;28;20037;-73
2020/12/24 03:56:59;;;;;;;1.60;0.90;;;10.70;83.30;;;;;;5012982;28;20030;-73
2020/12/24 03:59:24;;;;;;;1.73;0.90;;;10.60;83.30;;;;;;5012877;28;20104;-73
2020/12/24 04:01:50;;;;;;;1.75;1.23;;;10.50;83.60;;;;;;5012640;28;20129;-73
2020/12/24 04:04:16;;;;;;;2.92;1.40;;;10.60;83.30;;;;;;5011522;28;20062;-73
2020/12/24 04:06:42;;;;;;;2.03;1.00;;;10.70;83.00;;;;;;5012981;28;20062;-73
2020/12/24 04:09:07;;;;;;;2.10;0.90;;;10.70;83.20;;;;;;5012710;28;20447;-73
2020/12/24 04:11:33;;;;;;;1.50;0.80;;;10.70;82.70;;;;;;5012704;28;20026;-73
2020/12/24 04:13:59;;;;;;;1.23;0.70;;;10.70;82.70;;;;;;5012753;28;20109;-73
2020/12/24 04:16:25;;;;;;;6.32;1.50;;;10.70;82.40;;;;;;5011369;28;20068;-73
2020/12/24 04:18:51;;;;;;;4.32;1.05;;;10.80;82.50;;;;;;5011490;28;20034;-73
2020/12/24 04:21:17;;;;;;;1.88;1.20;;;10.80;82.30;;;;;;5012941;28;20030;-73
2020/12/24 04:23:43;;;;;;;2.15;0.90;;;10.80;82.30;;;;;;5012505;28;20026;-73
2020/12/24 04:26:08;;;;;;;4.38;1.52;;;10.80;82.30;;;;;;5012834;28;20040;-73
2020/12/24 04:28:35;;;;;;;1.88;1.20;;;10.80;82.40;;;;;;5012455;28;20034;-73
2020/12/24 04:31:02;;;;;;;2.17;1.65;;;10.70;82.30;;;;;;5016126;28;20045;-73
2020/12/24 04:33:28;;;;;;;3.00;0.90;;;10.70;82.90;;;;;;5016286;28;20037;-73
2020/12/24 04:35:54;;;;;;;3.13;0.85;;;10.70;81.80;;;;;;5016228;28;20018;-73
2020/12/24 04:38:19;;;;;;;4.43;1.70;;;10.70;82.20;;;;;;5016519;28;20134;-73
2020/12/24 04:40:49;;;;;;;1.33;0.73;;;10.70;83.00;;;;;;5016199;28;20456;-74
2020/12/24 04:43:16;;;;;;;2.97;1.10;;;10.80;82.00;;;;;;5016229;28;20026;-73
2020/12/24 04:45:42;;;;;;;2.67;1.42;;;10.80;82.40;;;;;;5016097;28;20022;-73
2020/12/24 04:48:09;;;;;;;2.70;1.23;;;10.80;82.60;;;;;;5014957;28;20030;-73
2020/12/24 04:50:38;;;;;;;2.38;0.60;;;10.80;82.20;;;;;;5015831;28;20052;-73
2020/12/24 04:53:03;;;;;;;1.98;0.90;;;10.90;81.90;;;;;;5014707;28;20072;-73
2020/12/24 04:55:29;;;;;;;2.42;1.20;;;10.80;81.30;;;;;;5014662;28;20424;-73
2020/12/24 04:57:58;;;;;;;2.03;0.90;;;10.80;82.10;;;;;;5014410;28;20052;-74
2020/12/24 05:00:26;;;;;;;3.20;0.60;;;10.80;82.10;;;;;;5015239;28;20057;-73
2020/12/24 05:03:08;;;;;;;3.42;1.48;;;10.80;81.20;;;;;;5014261;28;20080;-73
2020/12/24 05:05:34;;;;;;;2.28;0.95;;;10.80;81.70;;;;;;5015769;28;20076;-73
2020/12/24 05:08:05;;;;;;;0.68;0.45;;;10.80;81.50;;;;;;5015863;28;20041;-73
2020/12/24 05:10:31;;;;;;;1.95;0.40;;;10.70;81.40;;;;;;5015591;28;20484;-74
2020/12/24 05:12:58;;;;;;;4.25;1.30;;;10.70;81.10;;;;;;5014384;28;20026;-73
2020/12/24 05:15:28;;;;;;;4.03;1.55;;;10.60;81.80;;;;;;5015546;28;20022;-73
2020/12/24 05:18:11;;;;;;;0.73;0.63;;;10.70;81.20;;;;;;5015572;28;20105;-73
2020/12/24 05:20:41;;;;;;;1.40;0.63;;;10.70;80.80;;;;;;5015808;28;20046;-73
2020/12/24 05:23:13;;;;;;;1.23;0.70;;;10.70;79.00;;;;;;5015439;28;20022;-73
2020/12/24 05:25:39;;;;;;;1.85;0.70;;;10.70;79.10;;;;;;5015341;28;20183;-74
2020/12/24 05:28:05;;;;;;;2.28;0.73;;;10.70;78.40;;;;;;5013844;28;20061;-74
2020/12/24 05:30:33;;;;;;;4.78;1.50;;;10.60;79.30;;;;;;5015347;28;20018;-73
2020/12/24 05:32:59;;;;;;;12.70;1.73;;;10.60;79.00;;;;;;5015135;28;20540;-73
2020/12/24 05:35:26;;;;;;;2.83;0.80;;;10.60;77.90;;;;;;5015115;28;20054;-73
2020/12/24 05:37:53;;;;;;;2.65;0.90;;;10.60;77.60;;;;;;5015236;28;20369;-73
2020/12/24 05:40:28;;;;;;;2.03;0.85;;;10.50;78.20;;;;;;5014831;28;20018;-73
2020/12/24 05:42:55;;;;;;;3.03;0.85;;;10.50;77.20;;;;;;5015358;28;20026;-73
2020/12/24 05:45:24;;;;;;;1.48;0.47;;;10.40;76.70;;;;;;5015205;28;20025;-73
2020/12/24 05:48:13;;;;;;;1.20;0.77;;;10.50;76.80;;;;;;5013630;28;20045;-73
2020/12/24 05:50:43;;;;;;;2.63;1.25;;;10.60;76.00;;;;;;5014784;28;20046;-73
2020/12/24 05:53:11;;;;;;;1.87;0.87;;;10.70;76.20;;;;;;5014914;28;20570;-73
2020/12/24 05:55:42;;;;;;;3.20;0.98;;;10.60;75.90;;;;;;5014835;28;20352;-73
2020/12/24 05:58:09;;;;;;;4.00;2.40;;;10.70;73.00;;;;;;5015093;28;20033;-73
2020/12/24 06:00:37;;;;;;;3.33;0.80;;;10.70;72.20;;;;;;5014638;28;20499;-73
2020/12/24 06:03:08;;;;;;;3.90;0.80;;;10.70;71.10;;;;;;5014651;28;20026;-73
2020/12/24 06:05:46;;;;;;;5.35;1.02;;;10.50;70.00;;;;;;5014601;28;20033;-73
2020/12/24 06:08:17;;;;;;;3.38;1.45;;;10.40;71.10;;;;;;5014543;28;20037;-73
2020/12/24 06:10:46;;;;;;;3.50;1.02;;;10.40;72.60;;;;;;5014478;28;20053;-73
2020/12/24 06:13:16;;;;;;;3.17;1.23;;;10.30;74.60;;;;;;5014442;28;20026;-73
2020/12/24 06:15:48;;;;;;;3.20;1.02;;;10.10;77.90;;;;;;5014414;28;20080;-74
2020/12/24 06:18:14;;;;;;;3.13;0.90;;;9.80;80.70;;;;;;5014656;28;20030;-73
2020/12/24 06:20:49;;;;;;;7.13;1.35;;;9.50;82.30;;;;;;5014270;28;20412;-74
2020/12/24 06:23:17;;;;;;;3.80;1.15;;;9.20;86.80;;;;;;5014223;28;20030;-73
2020/12/24 06:25:43;;;;;;;3.35;0.98;;;8.80;86.90;;;;;;5014181;28;20026;-73
2020/12/24 06:28:11;;;;;;;3.00;1.05;;;8.50;86.80;;;;;;5014249;28;20069;-73
2020/12/24 06:30:38;;;;;;;41.42;19.67;;;8.30;87.60;;;;;;5013970;28;20483;-73
2020/12/24 06:33:03;;;;;;;98.60;49.75;;;8.10;88.10;;;;;;5012993;28;20049;-73
2020/12/24 06:35:39;;;;;;;10.32;5.38;;;8.00;87.90;;;;;;5014107;28;20026;-73
2020/12/24 06:38:07;;;;;;;5.10;1.60;;;7.90;88.50;;;;;;5013989;28;20033;-74
2020/12/24 06:40:38;;;;;;;3.17;1.10;;;7.80;89.20;;;;;;5013978;28;20034;-73
2020/12/24 06:43:05;;;;;;;1.67;0.80;;;7.70;89.70;;;;;;5013971;28;20026;-73
2020/12/24 06:45:33;;;;;;;6.55;1.65;;;7.60;89.40;;;;;;5014172;28;20034;-73
2020/12/24 06:48:27;;;;;;;2.55;1.13;;;7.50;89.80;;;;;;5014177;28;20045;-73
2020/12/24 06:51:03;;;;;;;3.20;1.10;;;7.50;88.80;;;;;;5013041;28;20037;-73
2020/12/24 06:53:37;;;;;;;2.13;1.20;;;7.50;88.40;;;;;;5013279;28;20026;-74
2020/12/24 06:56:15;;;;;;;2.70;1.10;;;7.40;88.50;;;;;;5013940;28;20054;-73
2020/12/24 06:58:48;;;;;;;22.80;10.57;;;7.20;88.30;;;;;;5013917;28;20113;-72
2020/12/24 07:01:26;;;;;;;191.93;103.78;;;7.20;88.60;;;;;;5011827;28;20054;-73
2020/12/24 07:03:54;;;;;;;64.60;31.45;;;7.10;88.30;;;;;;5010399;28;20065;-73
2020/12/24 07:06:41;;;;;;;17.13;8.18;;;7.10;87.80;;;;;;5013518;28;20503;-72
2020/12/24 07:09:12;;;;;;;7.65;2.55;;;7.10;87.40;;;;;;5013316;28;20108;-73
2020/12/24 07:11:54;;;;;;;6.90;2.17;;;7.10;86.70;;;;;;5013355;28;20029;-73
2020/12/24 07:14:32;;;;;;;2.47;0.80;;;7.00;86.50;;;;;;5013685;28;20026;-73
2020/12/24 07:17:08;;;;;;;8.07;1.67;;;6.90;86.60;;;;;;5013450;28;20026;-73
2020/12/24 07:19:37;;;;;;;4.28;1.30;;;6.90;86.00;;;;;;5013335;28;20029;-73
2020/12/24 07:22:08;;;;;;;3.42;0.98;;;7.00;85.30;;;;;;5011977;28;20421;-74
2020/12/24 07:24:35;;;;;;;6.75;1.80;;;7.00;85.00;;;;;;5013207;28;20481;-74
2020/12/24 07:27:02;;;;;;;6.38;1.33;;;7.00;84.90;;;;;;5011873;28;20041;-74
2020/12/24 07:29:29;;;;;;;6.13;1.08;;;7.00;84.00;;;;;;5013114;28;20026;-73
2020/12/24 07:31:56;;;;;;;3.10;1.20;;;7.00;84.30;;;;;;5012819;28;20026;-74
2020/12/24 07:34:26;;;;;;;3.55;0.88;;;7.00;84.10;;;;;;5011840;28;20080;-74
2020/12/24 07:36:52;;;;;;;6.85;1.25;;;7.00;84.50;;;;;;5013330;28;20017;-74
2020/12/24 07:39:20;;;;;;;3.90;1.48;;;7.00;84.20;;;;;;5012929;28;20084;-74
2020/12/24 07:41:46;;;;;;;2.63;0.80;;;7.00;84.50;;;;;;5011735;28;20026;-73
2020/12/24 07:44:14;;;;;;;4.90;1.33;;;7.00;84.40;;;;;;5013021;28;20022;-73
2020/12/24 07:46:40;;;;;;;2.85;1.60;;;7.00;84.50;;;;;;5012778;28;20022;-73
2020/12/24 07:49:06;;;;;;;5.63;1.50;;;7.00;85.00;;;;;;5012828;28;20058;-73
2020/12/24 07:51:32;;;;;;;7.80;0.95;;;6.90;84.50;;;;;;5011482;28;20048;-73
2020/12/24 07:54:12;;;;;;;6.75;1.48;;;7.00;84.80;;;;;;5011644;28;20054;-73
2020/12/24 07:56:43;;;;;;;4.43;1.13;;;6.90;84.70;;;;;;5013056;28;20026;-73
2020/12/24 07:59:09;;;;;;;;;;;6.90;84.70;;;;;;5013312;28;20025;-73
2020/12/24 08:01:34;;;;;;;186.02;106.20;;;6.80;85.00;;;;;;5011482;28;19905;-73
2020/12/24 08:04:03;;;;;;;5.95;1.95;;;6.80;85.30;;;;;;5015053;28;20062;-73
2020/12/24 08:06:29;;;;;;;4.15;1.40;;;6.70;85.50;;;;;;5015327;28;20117;-73
2020/12/24 08:09:16;;;;;;;4.38;1.33;;;6.80;85.60;;;;;;5016658;28;20126;-73
2020/12/24 08:11:51;;;;;;;3.15;1.42;;;6.90;84.80;;;;;;5016817;28;20022;-73
2020/12/24 08:14:23;;;;;;;3.97;1.23;;;6.80;85.10;;;;;;5016653;28;20476;-73
2020/12/24 08:16:50;;;;;;;3.70;1.55;;;6.80;84.40;;;;;;4999626;28;20408;-73
2020/12/24 08:19:59;;;;;;;6.20;1.13;;;7.00;84.10;;;;;;5016390;28;20026;-73
2020/12/24 08:22:56;;;;;;;5.18;1.27;;;7.00;83.70;;;;;;4975198;28;20027;-73
2020/12/24 08:25:23;;;;;;;6.38;2.03;;;7.20;83.20;;;;;;5015864;28;20065;-73
2020/12/24 08:27:49;;;;;;;5.55;1.70;;;7.50;82.10;;;;;;5016364;28;20065;-73
2020/12/24 08:30:15;;;;;;;4.80;1.60;;;7.80;80.60;;;;;;5016365;28;20109;-72
2020/12/24 08:32:42;;;;;;;4.60;1.58;;;7.90;80.50;;;;;;5016251;28;20492;-72
2020/12/24 08:35:16;;;;;;;10.73;2.00;;;8.00;78.60;;;;;;5016285;28;20029;-74
2020/12/24 08:37:42;;;;;;;3.70;1.30;;;8.20;78.10;;;;;;5016498;28;20018;-73
2020/12/24 08:40:21;;;;;;;4.53;1.15;;;8.40;76.70;;;;;;5016128;28;20052;-73
2020/12/24 08:42:48;;;;;;;6.75;1.40;;;8.50;76.20;;;;;;5014661;28;20026;-73
2020/12/24 08:45:14;;;;;;;7.10;1.75;;;8.60;75.40;;;;;;5016210;28;20380;-73
2020/12/24 08:47:41;;;;;;;10.30;1.27;;;8.60;74.20;;;;;;5016223;28;20514;-73
2020/12/24 08:50:06;;;;;;;4.70;1.35;;;8.70;73.80;;;;;;5015750;28;20049;-74
2020/12/24 08:52:38;;;;;;;8.52;2.28;;;8.80;73.00;;;;;;5016052;28;20032;-73
2020/12/24 08:55:06;;;;;;;5.80;2.05;;;8.80;72.50;;;;;;5015721;28;20022;-72
2020/12/24 08:57:32;;;;;;;7.47;1.73;;;8.80;73.90;;;;;;5015827;28;20025;-72
2020/12/24 09:00:00;;;;;;;6.72;1.80;;;8.80;70.90;;;;;;5014193;28;20481;-73
2020/12/24 09:02:31;;;;;;;5.95;1.60;;;8.90;71.00;;;;;;5013204;28;20066;-74
2020/12/24 09:04:58;;;;;;;5.50;1.40;;;9.00;71.30;;;;;;5015989;28;20030;-73
2020/12/24 09:07:34;;;;;;;7.93;1.33;;;9.10;70.10;;;;;;5015433;28;20397;-73
2020/12/24 09:10:27;;;;;;;11.85;1.90;;;9.20;70.60;;;;;;5014365;28;20120;-73
2020/12/24 09:13:02;;;;;;;5.63;1.40;;;9.30;68.40;;;;;;5015278;28;20046;-73
2020/12/24 09:15:29;;;;;;;6.35;2.30;;;9.50;68.10;;;;;;5014725;28;20024;-73
2020/12/24 09:17:56;;;;;;;5.68;1.58;;;9.70;66.90;;;;;;5013982;28;20029;-73
2020/12/24 09:20:30;;;;;;;5.88;1.50;;;9.70;65.70;;;;;;5013602;28;20026;-73
2020/12/24 09:22:57;;;;;;;5.18;1.42;;;9.80;66.00;;;;;;5013725;28;20057;-74
2020/12/24 09:25:34;;;;;;;8.45;2.05;;;10.00;65.10;;;;;;5014792;28;20084;-74
2020/12/24 09:28:01;;;;;;;7.93;1.80;;;10.00;65.80;;;;;;5013762;28;20477;-74
2020/12/24 09:30:27;;;;;;;6.50;1.30;;;10.30;64.50;;;;;;5015194;28;20034;-73
2020/12/24 09:32:58;;;;;;;3.85;0.85;;;10.50;62.30;;;;;;5013664;28;20026;-73
2020/12/24 09:35:25;;;;;;;4.95;1.55;;;10.70;62.20;;;;;;5014860;28;20021;-74
2020/12/24 09:37:51;;;;;;;6.07;1.67;;;10.80;62.30;;;;;;5015281;28;20096;-74
2020/12/24 09:40:17;;;;;;;8.48;2.15;;;10.90;59.60;;;;;;5015081;28;20114;-74
2020/12/24 09:42:43;;;;;;;6.15;1.42;;;11.00;61.50;;;;;;5015253;28;20050;-72
2020/12/24 09:45:09;;;;;;;3.33;1.90;;;10.80;61.00;;;;;;5014977;28;20022;-73
2020/12/24 09:47:38;;;;;;;6.55;1.95;;;10.80;60.80;;;;;;5014636;28;20034;-75
2020/12/24 09:50:05;;;;;;;6.63;1.25;;;10.80;62.60;;;;;;5088588;22;20048;-73
2020/12/24 09:52:31;;;;;;;5.78;1.55;;;10.90;61.50;;;;;;5094621;28;20035;-74
2020/12/24 09:54:57;;;;;;;7.30;1.20;;;10.80;60.40;;;;;;5093092;28;20020;-74
2020/12/24 09:57:22;;;;;;;4.65;1.25;;;10.80;61.10;;;;;;5095484;28;20375;-74
2020/12/24 09:59:48;;;;;;;4.68;1.42;;;10.60;62.10;;;;;;5095072;28;20463;-74
2020/12/24 10:02:13;;;;;;;7.45;1.30;;;10.40;61.50;;;;;;5094840;28;20020;-74
2020/12/24 10:04:39;;;;;;;4.35;1.48;;;10.40;62.40;;;;;;5094737;28;20474;-73
2020/12/24 10:07:05;;;;;;;5.32;1.27;;;10.40;63.00;;;;;;5094165;28;20046;-74
2020/12/24 10:09:30;;;;;;;5.70;1.45;;;10.30;62.80;;;;;;5094443;28;20020;-73
2020/12/24 10:11:56;;;;;;;5.43;1.35;;;10.10;63.60;;;;;;5094272;28;20466;-72
2020/12/24 10:14:22;;;;;;;3.35;1.50;;;10.00;64.20;;;;;;5094231;28;20028;-73
2020/12/24 10:16:47;;;;;;;7.78;2.08;;;10.10;64.60;;;;;;5094260;28;20020;-74
2020/12/24 10:19:13;;;;;;;8.27;1.83;;;10.10;64.90;;;;;;5093846;28;20470;-73
2020/12/24 10:21:42;;;;;;;6.03;1.67;;;10.30;64.00;;;;;;5093859;28;20024;-74
2020/12/24 10:24:07;;;;;;;2.95;1.30;;;10.30;64.20;;;;;;5093953;28;20031;-73
2020/12/24 10:26:33;;;;;;;7.68;1.70;;;10.50;64.10;;;;;;5092891;28;20024;-73
2020/12/24 10:28:59;;;;;;;8.80;1.58;;;10.60;63.10;;;;;;5093952;28;20043;-73
2020/12/24 10:31:24;;;;;;;5.55;1.27;;;10.50;63.10;;;;;;5094042;28;20043;-73
2020/12/24 10:33:50;;;;;;;4.03;1.33;;;10.40;63.20;;;;;;5094155;28;20347;-73
2020/12/24 10:36:23;;;;;;;4.40;1.13;;;10.40;62.60;;;;;;5093740;28;20478;-73
2020/12/24 10:38:48;;;;;;;3.60;1.15;;;10.30;66.00;;;;;;5093583;28;20026;-73
2020/12/24 10:41:15;;;;;;;4.22;1.02;;;10.40;67.20;;;;;;5093534;28;20331;-73
2020/12/24 10:43:40;;;;;;;7.13;1.08;;;10.20;68.50;;;;;;5093599;28;20027;-73
2020/12/24 10:46:07;;;;;;;2.88;0.95;;;10.30;68.60;;;;;;5093579;28;20036;-73
2020/12/24 10:48:32;;;;;;;3.28;1.00;;;10.30;67.20;;;;;;5093395;28;20074;-73
2020/12/24 10:50:59;;;;;;;6.80;1.23;;;10.50;66.10;;;;;;5093732;28;20470;-74
2020/12/24 10:53:25;;;;;;;7.68;1.15;;;10.70;65.40;;;;;;5093739;28;20024;-73
2020/12/24 10:55:50;;;;;;;3.33;1.13;;;10.90;64.60;;;;;;5093526;28;20020;-74
2020/12/24 10:58:16;;;;;;;4.10;1.38;;;10.90;64.50;;;;;;5093677;28;20042;-74
2020/12/24 11:00:41;;;;;;;4.40;1.05;;;10.90;65.70;;;;;;5075217;28;20487;-73
2020/12/24 11:03:07;;;;;;;4.07;1.25;;;10.90;63.50;;;;;;5093581;28;20024;-73
2020/12/24 11:05:33;;;;;;;8.93;1.60;;;10.80;64.20;;;;;;5075449;28;20028;-73
2020/12/24 11:07:58;;;;;;;5.47;1.30;;;10.70;64.70;;;;;;5093144;28;20394;-73
2020/12/24 11:10:24;;;;;;;6.40;1.10;;;10.80;64.70;;;;;;5092949;28;20039;-73
2020/12/24 11:12:50;;;;;;;3.33;1.35;;;10.90;64.10;;;;;;5074929;28;20035;-73
2020/12/24 11:15:15;;;;;;;2.90;1.00;;;10.90;64.20;;;;;;5092937;28;20017;-74
2020/12/24 11:17:41;;;;;;;8.32;1.23;;;10.90;63.60;;;;;;5093046;28;20052;-73
2020/12/24 11:20:07;;;;;;;3.83;1.38;;;11.00;64.10;;;;;;5074661;28;20046;-73
2020/12/24 11:22:32;;;;;;;4.45;1.75;;;11.20;63.10;;;;;;5093150;28;20020;-73
2020/12/24 11:24:58;;;;;;;1.45;0.98;;;11.20;62.80;;;;;;5093011;28;20462;-74
2020/12/24 11:27:24;;;;;;;2.78;0.98;;;11.40;63.80;;;;;;5092617;28;20074;-73
2020/12/24 11:29:50;;;;;;;1.17;0.70;;;11.30;62.80;;;;;;5086981;28;20112;-74
2020/12/24 11:32:17;;;;;;;4.35;1.25;;;11.40;62.70;;;;;;5072027;28;20099;-74
2020/12/24 11:34:43;;;;;;;4.22;0.85;;;11.30;62.70;;;;;;5054605;28;20025;-73
2020/12/24 11:37:09;;;;;;;1.55;0.70;;;11.30;62.70;;;;;;5072178;28;20043;-74
2020/12/24 11:39:34;;;;;;;4.95;1.05;;;11.20;63.00;;;;;;5072011;28;20052;-73
2020/12/24 11:42:00;;;;;;;2.70;0.93;;;11.30;63.90;;;;;;5072660;28;20150;-74
2020/12/24 11:44:26;;;;;;;4.30;1.02;;;11.40;63.10;;;;;;5072610;28;20071;-74
2020/12/24 11:46:51;;;;;;;2.65;1.10;;;11.40;63.20;;;;;;5072099;28;20025;-73
2020/12/24 11:49:18;;;;;;;2.55;0.68;;;11.40;62.50;;;;;;5071873;28;20556;-73
2020/12/24 11:51:43;;;;;;;2.13;0.50;;;11.20;63.00;;;;;;5072431;28;20028;-73
2020/12/24 11:54:09;;;;;;;1.92;0.60;;;11.30;63.20;;;;;;5072283;28;20390;-74
2020/12/24 11:56:34;;;;;;;3.38;1.02;;;11.20;63.00;;;;;;5072581;28;20103;-73
2020/12/24 11:59:00;;;;;;;2.25;0.70;;;11.30;63.30;;;;;;5072678;28;20395;-73
2020/12/24 12:01:26;;;;;;;2.72;0.80;;;11.20;64.90;;;;;;5054095;28;20024;-73
2020/12/24 12:03:52;;;;;;;0.80;0.52;;;11.20;64.20;;;;;;5072460;28;20024;-73
2020/12/24 12:06:18;;;;;;;186.45;136.35;;;11.30;64.20;;;;;;5072382;28;20443;-73
2020/12/24 12:08:48;;;;;;;4.15;1.83;;;11.30;62.90;;;;;;5072047;28;20079;-73
2020/12/24 12:11:14;;;;;;;2.55;0.70;;;11.20;63.60;;;;;;5072046;28;20024;-73
2020/12/24 12:13:39;;;;;;;4.07;0.77;;;11.10;63.30;;;;;;5072307;28;20028;-73
2020/12/24 12:16:07;;;;;;;15.52;7.10;;;11.00;64.50;;;;;;5071954;28;20032;-73
2020/12/24 12:18:34;;;;;;;35.75;20.50;;;11.00;64.30;;;;;;5072186;28;20029;-73
2020/12/24 12:21:00;;;;;;;3.85;2.38;;;10.80;64.60;;;;;;5053908;28;20028;-73
2020/12/24 12:23:26;;;;;;;10.85;5.78;;;10.50;65.80;;;;;;5053998;28;20020;-72
2020/12/24 12:25:52;;;;;;;4.05;1.27;;;10.40;67.00;;;;;;5054001;28;20021;-73
2020/12/24 12:28:17;;;;;;;4.60;1.98;;;10.10;67.10;;;;;;5071759;28;20032;-73
2020/12/24 12:30:43;;;;;;;1.55;0.55;;;10.00;69.20;;;;;;5071946;28;20052;-73
2020/12/24 12:33:09;;;;;;;1.15;0.70;;;10.00;68.20;;;;;;5054368;28;20061;-72
2020/12/24 12:35:34;;;;;;;3.15;1.73;;;10.00;68.70;;;;;;5072468;28;20051;-73
2020/12/24 12:38:00;;;;;;;2.65;1.02;;;10.00;68.20;;;;;;5054019;28;20062;-73
2020/12/24 12:40:27;;;;;;;2.97;1.27;;;9.80;68.20;;;;;;5071779;28;20025;-75
2020/12/24 12:42:53;;;;;;;7.47;4.00;;;9.70;68.90;;;;;;5071818;28;20039;-73
2020/12/24 12:45:19;;;;;;;6.80;2.38;;;9.70;69.60;;;;;;5054481;28;20025;-74
2020/12/24 12:47:47;;;;;;;5.07;2.08;;;9.80;69.90;;;;;;5071867;28;20465;-74
2020/12/24 12:50:15;;;;;;;2.65;0.70;;;9.90;69.60;;;;;;5073018;28;20048;-74